createdAt,value
2022-09-07T00:01:25.874Z,19.83
2022-09-07T00:05:28.256Z,19.84
2022-09-07T00:09:36.298Z,19.87
2022-09-07T00:13:39.744Z,19.94
2022-09-07T00:17:48.445Z,19.95
2022-09-07T00:21:56.612Z,19.96
2022-09-07T00:26:07.441Z,19.88
2022-09-07T00:30:09.450Z,19.88
2022-09-07T00:34:17.284Z,19.90
2022-09-07T00:38:18.890Z,19.86
2022-09-07T00:42:22.113Z,19.83
2022-09-07T00:46:25.652Z,19.72
2022-09-07T00:50:38.706Z,19.67
2022-09-07T00:54:47.525Z,19.60
2022-09-07T00:58:49.187Z,19.53
2022-09-07T01:03:00.496Z,19.52
2022-09-07T01:07:04.108Z,19.55
2022-09-07T01:11:06.344Z,19.51
2022-09-07T01:15:15.359Z,19.44
2022-09-07T01:19:49.325Z,19.32
2022-09-07T01:24:07.097Z,19.27
2022-09-07T01:28:11.331Z,19.22
2022-09-07T01:32:28.081Z,19.14
2022-09-07T01:36:48.725Z,19.15
2022-09-07T01:41:09.340Z,19.11
2022-09-07T01:45:13.874Z,19.09
2022-09-07T01:49:54.249Z,19.06
2022-09-07T01:54:01.043Z,19.10
2022-09-07T01:58:15.265Z,19.08
2022-09-07T02:02:21.302Z,19.13
2022-09-07T02:06:39.530Z,19.14
2022-09-07T02:10:48.974Z,19.16
2022-09-07T02:14:59.374Z,19.10
2022-09-07T02:19:14.229Z,19.01
2022-09-07T02:23:22.680Z,18.92
2022-09-07T02:27:41.416Z,18.88
2022-09-07T02:31:42.938Z,18.76
2022-09-07T02:35:44.587Z,18.73
2022-09-07T02:39:46.701Z,18.67
2022-09-07T02:43:48.473Z,18.60
2022-09-07T02:48:06.389Z,18.54
2022-09-07T02:52:30.733Z,18.53
2022-09-07T02:56:58.342Z,18.46
2022-09-07T03:01:29.290Z,18.42
2022-09-07T03:05:37.170Z,18.34
2022-09-07T03:09:43.664Z,18.28
2022-09-07T03:13:45.483Z,18.21
2022-09-07T03:17:47.853Z,18.05
2022-09-07T03:21:49.454Z,18.03
2022-09-07T03:25:51.310Z,18.06
2022-09-07T03:29:52.702Z,18.03
2022-09-07T03:33:55.809Z,18.01
2022-09-07T03:38:03.489Z,17.90
2022-09-07T03:42:05.055Z,17.87
2022-09-07T03:46:13.540Z,17.85
2022-09-07T03:50:15.105Z,17.85
2022-09-07T03:54:23.627Z,17.84
2022-09-07T03:58:25.297Z,17.85
2022-09-07T04:02:26.851Z,17.87
2022-09-07T04:06:29.329Z,17.89
2022-09-07T04:10:31.262Z,17.87
2022-09-07T04:14:32.738Z,17.84
2022-09-07T04:18:36.021Z,17.80
2022-09-07T04:22:37.590Z,17.78
2022-09-07T04:26:45.506Z,17.73
2022-09-07T04:30:47.669Z,17.71
2022-09-07T04:34:51.995Z,17.71
2022-09-07T04:38:59.807Z,17.65
2022-09-07T04:43:01.521Z,17.59
2022-09-07T04:47:03.107Z,17.59
2022-09-07T04:51:06.548Z,17.60
2022-09-07T04:55:08.610Z,17.56
2022-09-07T04:59:10.061Z,17.49
2022-09-07T05:03:11.617Z,17.44
2022-09-07T05:07:13.133Z,17.40
2022-09-07T05:11:18.615Z,17.36
2022-09-07T05:15:20.073Z,17.34
2022-09-07T05:19:21.849Z,17.25
2022-09-07T05:23:24.313Z,17.27
2022-09-07T05:27:25.828Z,17.22
2022-09-07T05:31:27.225Z,17.21
2022-09-07T05:35:28.709Z,17.26
2022-09-07T05:39:30.359Z,17.21
2022-09-07T05:43:31.899Z,17.27
2022-09-07T05:47:39.496Z,17.36
2022-09-07T05:51:41.254Z,17.46
2022-09-07T05:55:42.882Z,17.57
2022-09-07T05:59:51.516Z,17.66
2022-09-07T06:03:52.968Z,17.74
2022-09-07T06:07:54.518Z,17.98
2022-09-07T06:11:57.720Z,18.31
2022-09-07T06:16:04.965Z,18.53
2022-09-07T06:20:07.469Z,18.87
2022-09-07T06:24:09.199Z,19.16
2022-09-07T06:28:10.754Z,19.44
2022-09-07T06:36:40.761Z,19.78
2022-09-07T06:40:43.542Z,20.03
2022-09-07T06:44:45.224Z,20.20
2022-09-07T06:48:53.515Z,20.27
2022-09-07T06:57:17.195Z,20.90
2022-09-07T07:01:24.137Z,21.25
2022-09-07T07:05:26.353Z,21.27
2022-09-07T07:09:30.547Z,20.96
2022-09-07T07:13:40.661Z,21.06
2022-09-07T07:17:58.394Z,21.27
2022-09-07T07:22:14.442Z,21.73
2022-09-07T07:26:28.565Z,21.93
2022-09-07T07:30:37.522Z,21.75
2022-09-07T07:34:46.575Z,21.55
2022-09-07T07:42:59.242Z,21.38
2022-09-07T07:47:00.830Z,21.39
2022-09-07T07:51:12.127Z,21.43
2022-09-07T07:59:35.739Z,21.47
2022-09-07T08:03:40.165Z,21.33
2022-09-07T08:07:41.573Z,21.25
2022-09-07T08:11:43.221Z,21.43
2022-09-07T08:15:52.612Z,22.14
2022-09-07T08:19:55.725Z,22.59
2022-09-07T08:23:57.089Z,22.56
2022-09-07T08:28:05.754Z,22.79
2022-09-07T08:32:07.174Z,22.86
2022-09-07T08:36:18.591Z,22.75
2022-09-07T08:40:28.085Z,23.39
2022-09-07T08:45:04.638Z,24.16
2022-09-07T08:49:13.959Z,23.77
2022-09-07T08:53:17.391Z,23.75
2022-09-07T08:57:33.756Z,23.99
2022-09-07T09:01:41.214Z,24.44
2022-09-07T09:05:58.828Z,24.87
2022-09-07T09:10:36.873Z,24.81
2022-09-07T09:15:08.881Z,24.51
2022-09-07T09:19:39.689Z,24.52
2022-09-07T09:23:43.729Z,24.73
2022-09-07T09:27:45.538Z,24.72
2022-09-07T09:31:47.026Z,24.89
2022-09-07T09:35:51.303Z,24.74
2022-09-07T09:40:04.575Z,24.50
2022-09-07T09:44:06.149Z,24.30
2022-09-07T09:48:17.710Z,24.26
2022-09-07T09:52:31.129Z,24.37
2022-09-07T09:56:42.860Z,24.36
2022-09-07T10:05:35.073Z,23.79
2022-09-07T10:09:41.535Z,23.82
2022-09-07T10:13:56.158Z,24.06
2022-09-07T10:17:58.773Z,24.27
2022-09-07T10:22:10.861Z,24.15
2022-09-07T10:26:28.323Z,24.48
2022-09-07T10:30:37.142Z,25.02
2022-09-07T10:35:08.664Z,25.31
2022-09-07T10:39:26.783Z,24.89
2022-09-07T10:43:49.601Z,24.57
2022-09-07T10:48:09.694Z,24.40
2022-09-07T10:52:22.393Z,24.20
2022-09-07T10:56:33.145Z,24.51
2022-09-07T11:01:00.611Z,24.96
2022-09-07T11:05:13.698Z,25.27
2022-09-07T11:09:21.279Z,25.00
2022-09-07T11:13:28.150Z,24.61
2022-09-07T11:17:30.953Z,24.44
2022-09-07T11:21:57.970Z,24.32
2022-09-07T11:26:14.433Z,24.27
2022-09-07T11:30:26.737Z,24.48
2022-09-07T11:34:37.781Z,24.54
2022-09-07T11:38:47.596Z,24.68
2022-09-07T11:43:02.707Z,24.76
2022-09-07T11:47:37.172Z,24.66
2022-09-07T11:51:53.760Z,24.70
2022-09-07T11:56:01.222Z,24.68
2022-09-07T12:00:27.626Z,24.75
2022-09-07T12:04:32.014Z,24.92
2022-09-07T12:08:50.629Z,25.18
2022-09-07T12:13:19.965Z,25.26
2022-09-07T12:17:56.858Z,25.06
2022-09-07T12:22:02.088Z,24.94
2022-09-07T12:26:33.085Z,24.96
2022-09-07T12:30:34.481Z,25.32
2022-09-07T12:34:35.799Z,25.96
2022-09-07T12:39:12.665Z,26.24
2022-09-07T12:43:13.992Z,26.24
2022-09-07T12:47:15.359Z,26.08
2022-09-07T12:56:17.224Z,25.72
2022-09-07T13:00:23.092Z,25.26
2022-09-07T13:05:08.657Z,25.04
2022-09-07T13:09:38.634Z,25.05
2022-09-07T13:18:08.904Z,25.21
2022-09-07T13:22:30.209Z,24.83
2022-09-07T13:27:00.713Z,25.04
2022-09-07T13:31:26.045Z,25.37
2022-09-07T13:35:29.422Z,25.49
2022-09-07T13:39:46.721Z,25.34
2022-09-07T13:43:49.974Z,25.32
2022-09-07T13:48:13.236Z,25.33
2022-09-07T13:52:23.101Z,25.20
2022-09-07T13:57:19.937Z,25.18
2022-09-07T14:01:24.357Z,25.18
2022-09-07T14:05:32.808Z,25.11
2022-09-07T14:09:35.033Z,24.97
2022-09-07T14:13:36.361Z,24.81
2022-09-07T14:17:38.697Z,24.64
2022-09-07T14:21:47.131Z,24.48
2022-09-07T14:30:26.141Z,24.21
2022-09-07T14:34:33.695Z,24.07
2022-09-07T14:42:58.690Z,23.89
2022-09-07T14:47:05.882Z,23.87
2022-09-07T14:51:29.854Z,23.88
2022-09-07T14:55:31.025Z,23.93
2022-09-07T14:59:43.770Z,24.01
2022-09-07T15:03:54.810Z,23.96
2022-09-07T15:08:07.870Z,23.94
2022-09-07T15:12:36.437Z,23.87
2022-09-07T15:16:43.040Z,23.80
2022-09-07T15:20:45.424Z,23.70
2022-09-07T15:24:55.158Z,23.63
2022-09-07T15:29:12.171Z,23.51
2022-09-07T15:33:19.966Z,23.42
2022-09-07T15:41:51.425Z,23.36
2022-09-07T15:45:53.054Z,23.40
2022-09-07T15:49:55.032Z,23.44
2022-09-07T15:54:14.172Z,23.47
2022-09-07T15:58:16.039Z,23.43
2022-09-07T16:06:39.265Z,23.33
2022-09-07T16:10:41.342Z,23.18
2022-09-07T16:14:42.733Z,23.05
2022-09-07T16:18:46.972Z,22.96
2022-09-07T16:27:10.673Z,22.73
2022-09-07T16:31:16.159Z,22.77
2022-09-07T16:35:17.658Z,22.74
2022-09-07T16:39:19.729Z,22.70
2022-09-07T16:43:22.933Z,22.64
2022-09-07T16:47:30.809Z,22.57
2022-09-07T16:51:32.299Z,22.47
2022-09-07T16:55:33.698Z,22.26
2022-09-07T16:59:35.139Z,22.16
2022-09-07T17:03:37.726Z,22.11
2022-09-07T17:07:39.261Z,22.07
2022-09-07T17:11:41.501Z,21.97
2022-09-07T17:15:43.125Z,21.80
2022-09-07T17:19:52.779Z,21.66
2022-09-07T17:23:55.799Z,21.58
2022-09-07T17:27:57.465Z,21.41
2022-09-07T17:36:22.337Z,21.40
2022-09-07T17:40:25.307Z,21.39
2022-09-07T17:44:38.071Z,21.36
2022-09-07T17:48:40.120Z,21.23
2022-09-07T17:52:52.789Z,21.14
2022-09-07T17:57:00.916Z,20.98
2022-09-07T18:01:04.043Z,20.92
2022-09-07T18:05:12.959Z,20.82
2022-09-07T18:09:14.511Z,20.77
2022-09-07T18:13:16.254Z,20.51
2022-09-07T18:17:17.881Z,20.40
2022-09-07T18:21:22.289Z,20.35
2022-09-07T18:25:23.717Z,20.38
2022-09-07T18:29:30.153Z,20.18
2022-09-07T18:33:41.840Z,20.15
2022-09-07T18:37:43.292Z,20.19
2022-09-07T18:41:44.642Z,20.19
2022-09-07T18:45:46.220Z,20.17
2022-09-07T18:49:47.801Z,20.10
2022-09-07T18:53:49.285Z,19.99
2022-09-07T18:57:50.890Z,19.96
2022-09-07T19:01:53.896Z,19.90
2022-09-07T19:06:21.873Z,19.76
2022-09-07T19:10:23.361Z,19.56
2022-09-07T19:14:24.701Z,19.37
2022-09-07T19:18:26.161Z,19.22
2022-09-07T19:22:27.487Z,19.06
2022-09-07T19:26:31.969Z,18.95
2022-09-07T19:30:34.477Z,18.90
2022-09-07T19:34:41.756Z,18.68
2022-09-07T19:38:43.246Z,18.53
2022-09-07T19:42:44.802Z,18.45
2022-09-07T19:46:46.335Z,18.35
2022-09-07T19:50:50.237Z,18.18
2022-09-07T19:54:51.754Z,18.04
2022-09-07T19:58:53.239Z,17.94
2022-09-07T20:02:54.760Z,17.83
2022-09-07T20:06:56.486Z,17.68
2022-09-07T20:11:02.505Z,17.61
2022-09-07T20:15:04.230Z,17.53
2022-09-07T20:19:07.396Z,17.44
2022-09-07T20:23:08.767Z,17.36
2022-09-07T20:27:10.261Z,17.21
2022-09-07T20:31:14.578Z,17.05
2022-09-07T20:35:16.257Z,16.97
2022-09-07T20:39:18.374Z,17.05
2022-09-07T20:43:20.653Z,17.05
2022-09-07T20:47:22.080Z,16.98
2022-09-07T20:51:23.566Z,16.90
2022-09-07T20:55:24.872Z,16.91
2022-09-07T20:59:26.263Z,16.96
2022-09-07T21:03:27.801Z,17.02
2022-09-07T21:07:29.213Z,17.03
2022-09-07T21:11:33.162Z,17.06
2022-09-07T21:15:41.682Z,17.05
2022-09-07T21:19:43.005Z,17.00
2022-09-07T21:23:44.417Z,16.96
2022-09-07T21:27:45.747Z,16.98
2022-09-07T21:31:54.310Z,17.04
2022-09-07T21:35:56.129Z,17.05
2022-09-07T21:40:04.429Z,16.96
2022-09-07T21:44:06.169Z,16.87
2022-09-07T21:48:07.582Z,16.96
2022-09-07T21:52:09.116Z,17.00
2022-09-07T21:56:13.291Z,17.07
2022-09-07T22:00:16.083Z,17.11
2022-09-07T22:04:17.570Z,17.15
2022-09-07T22:08:19.697Z,17.15
2022-09-07T22:12:21.125Z,17.22
2022-09-07T22:16:23.114Z,17.32
2022-09-07T22:20:24.538Z,17.41
2022-09-07T22:24:33.055Z,17.49
2022-09-07T22:28:35.254Z,17.45
2022-09-07T22:32:36.666Z,17.42
2022-09-07T22:36:45.249Z,17.48
2022-09-07T22:40:46.594Z,17.53
2022-09-07T22:44:54.428Z,17.40
2022-09-07T22:48:57.832Z,17.40
2022-09-07T22:52:59.170Z,17.49
2022-09-07T22:57:00.632Z,17.53
2022-09-07T23:01:08.033Z,17.57
2022-09-07T23:05:10.163Z,17.59
2022-09-07T23:09:17.521Z,17.63
2022-09-07T23:13:20.197Z,17.64
2022-09-07T23:17:21.531Z,17.67
2022-09-07T23:21:29.114Z,17.69
2022-09-07T23:25:30.834Z,17.66
2022-09-07T23:29:32.229Z,17.53
2022-09-07T23:33:40.229Z,17.56
2022-09-07T23:37:41.557Z,17.59
2022-09-07T23:41:43.003Z,17.64
2022-09-07T23:45:44.693Z,17.66
2022-09-07T23:49:46.047Z,17.66
2022-09-07T23:53:47.569Z,17.66
2022-09-07T23:57:49.013Z,17.70
